createdAt,value
2018-11-25T00:00:18.191Z,16.97
2018-11-25T00:02:30.459Z,15.70
2018-11-25T00:04:42.651Z,15.00
2018-11-25T00:06:54.856Z,14.67
2018-11-25T00:09:07.832Z,15.57
2018-11-25T00:11:20.053Z,14.03
2018-11-25T00:13:32.299Z,14.80
2018-11-25T00:15:44.475Z,15.23
2018-11-25T00:17:56.719Z,17.93
2018-11-25T00:20:11.749Z,16.13
2018-11-25T00:22:23.947Z,15.17
2018-11-25T00:24:36.152Z,15.00
2018-11-25T00:26:48.303Z,14.50
2018-11-25T00:29:00.539Z,16.20
2018-11-25T00:31:12.728Z,16.80
2018-11-25T00:33:24.901Z,15.50
2018-11-25T00:35:37.095Z,15.77
2018-11-25T00:37:49.276Z,15.37
2018-11-25T00:40:01.492Z,17.03
2018-11-25T00:42:13.671Z,16.17
2018-11-25T00:44:25.864Z,16.50
2018-11-25T00:46:38.052Z,15.63
2018-11-25T00:48:50.267Z,16.67
2018-11-25T00:51:02.493Z,15.47
2018-11-25T00:53:14.644Z,17.37
2018-11-25T00:55:26.888Z,14.00
2018-11-25T00:57:39.095Z,16.03
2018-11-25T00:59:51.303Z,17.43
2018-11-25T01:02:03.599Z,16.20
2018-11-25T01:04:15.785Z,14.07
2018-11-25T01:06:27.973Z,14.83
2018-11-25T01:08:40.163Z,13.10
2018-11-25T01:10:52.924Z,15.27
2018-11-25T01:13:05.184Z,17.07
2018-11-25T01:15:17.668Z,12.43
2018-11-25T01:17:29.887Z,14.77
2018-11-25T01:19:42.083Z,16.43
2018-11-25T01:21:54.265Z,12.57
2018-11-25T01:24:06.436Z,15.03
2018-11-25T01:26:18.650Z,15.00
2018-11-25T01:28:30.839Z,14.63
2018-11-25T01:30:43.043Z,13.30
2018-11-25T01:32:55.205Z,14.90
2018-11-25T01:35:08.532Z,13.50
2018-11-25T01:37:20.756Z,10.80
2018-11-25T01:39:32.967Z,10.47
2018-11-25T01:41:45.133Z,12.13
2018-11-25T01:43:57.306Z,9.67
2018-11-25T01:46:09.525Z,11.27
2018-11-25T01:48:21.691Z,12.20
2018-11-25T01:50:33.864Z,9.60
2018-11-25T01:52:46.601Z,9.07
2018-11-25T01:54:58.758Z,13.67
2018-11-25T01:57:10.945Z,12.57
2018-11-25T01:59:23.128Z,15.50
2018-11-25T02:01:35.316Z,17.63
2018-11-25T02:03:47.534Z,18.80
2018-11-25T02:05:59.711Z,19.73
2018-11-25T02:08:11.921Z,17.00
2018-11-25T02:10:24.140Z,15.83
2018-11-25T02:12:36.364Z,16.50
2018-11-25T02:14:48.611Z,12.50
2018-11-25T02:17:00.847Z,15.43
2018-11-25T02:19:13.028Z,15.53
2018-11-25T02:21:25.214Z,17.50
2018-11-25T02:23:37.409Z,14.70
2018-11-25T02:25:49.596Z,15.53
2018-11-25T02:28:01.808Z,17.67
2018-11-25T02:30:14.893Z,16.03
2018-11-25T02:32:27.048Z,16.73
2018-11-25T02:34:39.216Z,14.03
2018-11-25T02:36:51.400Z,14.93
2018-11-25T02:39:05.361Z,16.67
2018-11-25T02:41:17.552Z,16.17
2018-11-25T02:43:29.748Z,17.43
2018-11-25T02:45:41.934Z,14.57
2018-11-25T02:47:54.107Z,16.63
2018-11-25T02:50:25.092Z,16.47
2018-11-25T02:52:37.276Z,17.63
2018-11-25T02:54:49.446Z,16.93
2018-11-25T02:57:01.660Z,16.63
2018-11-25T02:59:13.896Z,17.40
2018-11-25T03:01:26.036Z,15.83
2018-11-25T03:03:38.213Z,19.87
2018-11-25T03:05:50.438Z,17.73
2018-11-25T03:08:02.623Z,18.10
2018-11-25T03:10:14.836Z,19.20
2018-11-25T03:12:27.036Z,17.70
2018-11-25T03:14:39.206Z,15.20
2018-11-25T03:16:51.445Z,16.90
2018-11-25T03:19:03.644Z,14.80
2018-11-25T03:21:15.837Z,16.67
2018-11-25T03:23:27.960Z,14.90
2018-11-25T03:25:40.168Z,14.17
2018-11-25T03:27:52.362Z,15.43
2018-11-25T03:30:08.747Z,13.83
2018-11-25T03:32:20.936Z,13.43
2018-11-25T03:34:33.079Z,13.70
2018-11-25T03:36:45.238Z,13.77
2018-11-25T03:38:57.421Z,14.77
2018-11-25T03:41:09.628Z,14.77
2018-11-25T03:43:21.807Z,13.50
2018-11-25T03:45:33.974Z,13.27
2018-11-25T03:47:46.209Z,14.27
2018-11-25T03:49:58.404Z,15.00
2018-11-25T03:52:10.576Z,14.83
2018-11-25T03:54:22.750Z,14.20
2018-11-25T03:56:34.901Z,14.20
2018-11-25T03:58:47.093Z,14.17
2018-11-25T04:00:59.300Z,12.77
2018-11-25T04:03:11.484Z,15.20
2018-11-25T04:05:23.643Z,13.97
2018-11-25T04:07:35.835Z,14.27
2018-11-25T04:09:48.046Z,13.97
2018-11-25T04:12:00.226Z,12.67
2018-11-25T04:14:12.436Z,9.97
2018-11-25T04:16:24.623Z,12.77
2018-11-25T04:18:36.803Z,12.33
2018-11-25T04:20:48.980Z,12.00
2018-11-25T04:23:01.148Z,13.30
2018-11-25T04:25:13.488Z,13.10
2018-11-25T04:27:25.652Z,13.87
2018-11-25T04:29:37.867Z,14.70
2018-11-25T04:31:50.043Z,13.87
2018-11-25T04:34:02.227Z,14.93
2018-11-25T04:36:14.464Z,12.83
2018-11-25T04:38:26.639Z,12.80
2018-11-25T04:40:38.868Z,14.53
2018-11-25T04:42:51.278Z,14.77
2018-11-25T04:45:03.756Z,13.13
2018-11-25T04:47:15.966Z,13.20
2018-11-25T04:49:28.112Z,15.60
2018-11-25T04:51:40.295Z,14.43
2018-11-25T04:53:52.480Z,11.37
2018-11-25T04:56:05.263Z,13.30
2018-11-25T04:58:17.431Z,12.43
2018-11-25T05:00:29.656Z,16.93
2018-11-25T05:02:41.836Z,14.47
2018-11-25T05:04:54.037Z,11.87
2018-11-25T05:07:06.530Z,16.53
2018-11-25T05:09:18.759Z,12.30
2018-11-25T05:11:30.938Z,13.47
2018-11-25T05:13:43.110Z,11.77
2018-11-25T05:15:55.363Z,12.27
2018-11-25T05:18:07.559Z,14.57
2018-11-25T05:20:19.970Z,12.57
2018-11-25T05:22:32.164Z,12.87
2018-11-25T05:24:44.379Z,11.93
2018-11-25T05:26:56.561Z,13.07
2018-11-25T05:29:08.755Z,12.97
2018-11-25T05:31:20.916Z,12.37
2018-11-25T05:33:33.098Z,12.53
2018-11-25T05:35:45.293Z,12.33
2018-11-25T05:37:57.490Z,12.10
2018-11-25T05:40:10.551Z,13.53
2018-11-25T05:42:22.751Z,12.93
2018-11-25T05:44:34.979Z,12.53
2018-11-25T05:46:47.146Z,15.30
2018-11-25T05:48:59.327Z,12.27
2018-11-25T05:51:11.495Z,13.13
2018-11-25T05:53:23.689Z,14.40
2018-11-25T05:55:35.856Z,12.50
2018-11-25T05:57:48.053Z,13.10
2018-11-25T06:00:00.254Z,11.90
2018-11-25T06:02:12.457Z,12.70
2018-11-25T06:04:24.639Z,12.07
2018-11-25T06:06:36.812Z,13.03
2018-11-25T06:08:49.023Z,13.03
2018-11-25T06:11:01.237Z,11.97
2018-11-25T06:13:13.399Z,11.57
2018-11-25T06:15:25.580Z,11.17
2018-11-25T06:17:37.755Z,13.23
2018-11-25T06:19:49.947Z,13.50
2018-11-25T06:22:02.110Z,10.67
2018-11-25T06:24:14.335Z,14.73
2018-11-25T06:26:26.520Z,13.07
2018-11-25T06:28:38.764Z,13.10
2018-11-25T06:30:50.943Z,11.67
2018-11-25T06:33:03.115Z,11.57
2018-11-25T06:35:16.250Z,12.67
2018-11-25T06:37:28.427Z,10.27
2018-11-25T06:39:40.618Z,12.60
2018-11-25T06:41:52.818Z,13.73
2018-11-25T06:44:05.432Z,14.23
2018-11-25T06:46:17.624Z,14.43
2018-11-25T06:48:29.815Z,15.33
2018-11-25T06:50:42.027Z,14.70
2018-11-25T06:52:54.258Z,13.87
2018-11-25T06:55:07.872Z,14.77
2018-11-25T06:57:20.061Z,12.17
2018-11-25T06:59:32.224Z,14.00
2018-11-25T07:01:44.408Z,13.63
2018-11-25T07:03:56.579Z,14.50
2018-11-25T07:06:08.789Z,14.80
2018-11-25T07:08:20.943Z,14.17
2018-11-25T07:10:33.178Z,14.30
2018-11-25T07:12:45.606Z,13.53
2018-11-25T07:14:57.800Z,12.93
2018-11-25T07:17:10.008Z,13.97
2018-11-25T07:19:22.201Z,17.23
2018-11-25T07:21:34.431Z,15.43
2018-11-25T07:23:46.635Z,14.03
2018-11-25T07:25:58.869Z,13.53
2018-11-25T07:28:18.314Z,15.40
2018-11-25T07:30:24.254Z,15.43
2018-11-25T07:32:36.469Z,16.37
2018-11-25T07:34:48.673Z,14.27
2018-11-25T07:37:00.872Z,15.03
2018-11-25T07:39:13.117Z,16.50
2018-11-25T07:41:25.285Z,16.00
2018-11-25T07:43:37.507Z,17.23
2018-11-25T07:45:49.809Z,15.97
2018-11-25T07:48:02.044Z,22.53
2018-11-25T07:50:14.321Z,19.13
2018-11-25T07:52:26.524Z,15.30
2018-11-25T07:54:38.732Z,17.43
2018-11-25T07:56:50.960Z,13.30
2018-11-25T07:59:03.168Z,15.43
2018-11-25T08:01:15.384Z,12.70
2018-11-25T08:03:27.587Z,12.63
2018-11-25T08:05:39.806Z,15.57
2018-11-25T08:07:51.961Z,13.20
2018-11-25T08:10:06.875Z,14.17
2018-11-25T08:12:19.096Z,12.80
2018-11-25T08:14:31.299Z,14.13
2018-11-25T08:16:43.504Z,14.03
2018-11-25T08:18:55.699Z,10.63
2018-11-25T08:21:07.952Z,12.87
2018-11-25T08:23:20.142Z,13.80
2018-11-25T08:25:32.404Z,13.10
2018-11-25T08:27:44.638Z,12.40
2018-11-25T08:29:56.868Z,13.70
2018-11-25T08:32:09.122Z,15.90
2018-11-25T08:34:21.379Z,14.50
2018-11-25T08:36:33.511Z,14.13
2018-11-25T08:38:45.773Z,14.43
2018-11-25T08:40:57.972Z,14.40
2018-11-25T08:43:10.170Z,13.97
2018-11-25T08:45:22.438Z,15.83
2018-11-25T08:47:34.624Z,15.87
2018-11-25T08:49:46.857Z,14.53
2018-11-25T08:51:59.123Z,16.33
2018-11-25T08:54:11.332Z,15.97
2018-11-25T08:56:23.595Z,16.93
2018-11-25T08:58:35.788Z,18.20
2018-11-25T09:00:48.136Z,19.17
2018-11-25T09:03:00.335Z,20.33
2018-11-25T09:05:13.638Z,18.17
2018-11-25T09:07:25.868Z,16.33
2018-11-25T09:09:38.128Z,18.10
2018-11-25T09:11:50.363Z,16.23
2018-11-25T09:14:02.658Z,16.20
2018-11-25T09:16:14.897Z,17.30
2018-11-25T09:18:27.161Z,13.77
2018-11-25T09:20:39.365Z,16.30
2018-11-25T09:22:51.999Z,16.93
2018-11-25T09:25:05.177Z,16.53
2018-11-25T09:27:17.470Z,15.60
2018-11-25T09:29:29.672Z,16.20
2018-11-25T09:31:41.977Z,17.97
2018-11-25T09:33:54.163Z,13.87
2018-11-25T09:36:06.419Z,16.83
2018-11-25T09:38:18.672Z,14.13
2018-11-25T09:40:30.901Z,13.10
2018-11-25T09:42:43.169Z,13.87
2018-11-25T09:44:55.363Z,16.23
2018-11-25T09:47:07.640Z,14.20
2018-11-25T09:49:19.859Z,14.57
2018-11-25T09:51:32.061Z,14.77
2018-11-25T09:53:44.268Z,14.50
2018-11-25T09:55:56.455Z,14.50
2018-11-25T09:58:08.658Z,13.30
2018-11-25T10:00:23.854Z,14.17
2018-11-25T10:02:36.055Z,13.43
2018-11-25T10:04:48.287Z,17.67
2018-11-25T10:07:00.573Z,14.53
2018-11-25T10:09:12.828Z,12.57
2018-11-25T10:11:25.108Z,13.63
2018-11-25T10:13:37.353Z,13.70
2018-11-25T10:15:49.591Z,11.73
2018-11-25T10:18:01.855Z,12.03
2018-11-25T10:20:15.228Z,12.60
2018-11-25T10:22:27.440Z,11.73
2018-11-25T10:24:39.668Z,13.77
2018-11-25T10:26:51.894Z,11.93
2018-11-25T10:29:04.168Z,13.07
2018-11-25T10:31:16.387Z,10.57
2018-11-25T10:33:28.582Z,11.37
2018-11-25T10:35:40.819Z,10.70
2018-11-25T10:37:53.114Z,11.23
2018-11-25T10:40:09.353Z,12.17
2018-11-25T10:42:21.559Z,11.77
2018-11-25T10:44:33.754Z,10.93
2018-11-25T10:46:46.023Z,10.30
2018-11-25T10:48:58.246Z,12.20
2018-11-25T10:51:10.503Z,12.83
2018-11-25T10:53:22.705Z,10.80
2018-11-25T10:55:35.013Z,9.03
2018-11-25T10:57:49.000Z,11.70
2018-11-25T11:00:01.237Z,9.90
2018-11-25T11:02:18.836Z,9.97
2018-11-25T11:04:36.692Z,12.27
2018-11-25T11:06:54.600Z,11.73
2018-11-25T11:09:06.857Z,11.63
2018-11-25T11:11:19.099Z,12.20
2018-11-25T11:13:31.329Z,13.07
2018-11-25T11:15:43.608Z,11.37
2018-11-25T11:17:55.836Z,9.47
2018-11-25T11:20:09.330Z,10.37
2018-11-25T11:22:21.537Z,10.80
2018-11-25T11:24:33.745Z,10.47
2018-11-25T11:26:46.036Z,11.67
2018-11-25T11:28:58.223Z,12.40
2018-11-25T11:31:13.438Z,11.20
2018-11-25T11:33:22.724Z,10.67
2018-11-25T11:35:34.947Z,10.13
2018-11-25T11:37:47.246Z,10.23
2018-11-25T11:39:59.547Z,9.83
2018-11-25T11:42:11.719Z,10.77
2018-11-25T11:44:23.987Z,10.63
2018-11-25T11:46:36.235Z,10.50
2018-11-25T11:48:48.463Z,10.27
2018-11-25T11:51:00.670Z,10.60
2018-11-25T11:53:12.914Z,11.07
2018-11-25T11:55:25.191Z,10.27
2018-11-25T11:57:37.484Z,10.23
2018-11-25T11:59:49.767Z,10.97
2018-11-25T12:02:01.964Z,10.50
2018-11-25T12:04:14.200Z,10.40
2018-11-25T12:06:26.512Z,10.57
2018-11-25T12:08:38.709Z,10.47
2018-11-25T12:10:50.944Z,9.80
2018-11-25T12:13:03.365Z,9.30
2018-11-25T12:15:30.333Z,12.70
2018-11-25T12:17:36.188Z,9.77
2018-11-25T12:19:48.432Z,8.27
2018-11-25T12:22:00.693Z,10.60
2018-11-25T12:24:12.915Z,10.80
2018-11-25T12:26:25.152Z,10.70
2018-11-25T12:28:37.353Z,9.47
2018-11-25T12:30:49.599Z,11.20
2018-11-25T12:33:01.821Z,10.47
2018-11-25T12:35:15.077Z,9.53
2018-11-25T12:37:27.298Z,9.63
2018-11-25T12:39:39.594Z,8.77
2018-11-25T12:41:51.867Z,9.90
2018-11-25T12:44:04.110Z,9.67
2018-11-25T12:46:16.344Z,9.30
2018-11-25T12:48:28.572Z,10.23
2018-11-25T12:50:40.799Z,9.53
2018-11-25T12:52:53.242Z,9.60
2018-11-25T12:55:07.831Z,9.17
2018-11-25T12:57:20.096Z,9.97
2018-11-25T12:59:32.324Z,8.47
2018-11-25T13:01:44.564Z,8.70
2018-11-25T13:03:56.778Z,8.53
2018-11-25T13:06:09.031Z,9.53
2018-11-25T13:08:21.236Z,7.63
2018-11-25T13:10:33.487Z,10.00
2018-11-25T13:12:45.744Z,9.90
2018-11-25T13:14:57.982Z,10.60
2018-11-25T13:17:10.255Z,10.10
2018-11-25T13:19:22.436Z,9.67
2018-11-25T13:21:34.662Z,8.20
2018-11-25T13:23:46.932Z,8.17
2018-11-25T13:25:59.201Z,9.63
2018-11-25T13:28:11.420Z,10.30
2018-11-25T13:30:24.850Z,9.90
2018-11-25T13:32:37.048Z,9.20
2018-11-25T13:34:49.262Z,6.30
2018-11-25T13:37:01.519Z,8.53
2018-11-25T13:39:13.796Z,5.57
2018-11-25T13:41:26.056Z,5.83
2018-11-25T13:43:38.327Z,6.40
2018-11-25T13:45:50.526Z,6.60
2018-11-25T13:48:02.832Z,7.13
2018-11-25T13:50:15.131Z,6.27
2018-11-25T13:52:27.350Z,5.63
2018-11-25T13:54:39.593Z,7.80
2018-11-25T13:56:51.820Z,5.37
2018-11-25T13:59:04.445Z,5.97
2018-11-25T14:01:16.666Z,4.13
2018-11-25T14:03:33.559Z,5.53
2018-11-25T14:05:52.519Z,4.77
2018-11-25T14:07:58.128Z,6.17
2018-11-25T14:10:14.053Z,5.07
2018-11-25T14:12:26.288Z,5.03
2018-11-25T14:14:38.537Z,6.70
2018-11-25T14:16:50.840Z,5.37
2018-11-25T14:19:03.022Z,6.23
2018-11-25T14:21:15.751Z,5.10
2018-11-25T14:23:27.496Z,5.80
2018-11-25T14:25:40.601Z,5.53
2018-11-25T14:27:54.030Z,5.17
2018-11-25T14:30:13.410Z,5.40
2018-11-25T14:32:24.601Z,5.97
2018-11-25T14:34:36.879Z,5.73
2018-11-25T14:36:49.157Z,7.00
2018-11-25T14:39:01.399Z,5.53
2018-11-25T14:41:13.625Z,6.77
2018-11-25T14:43:25.866Z,7.20
2018-11-25T14:45:38.127Z,8.33
2018-11-25T14:47:50.328Z,7.30
2018-11-25T14:50:03.083Z,7.67
2018-11-25T14:52:15.298Z,7.13
2018-11-25T14:54:27.547Z,7.37
2018-11-25T14:56:39.820Z,8.17
2018-11-25T14:58:52.086Z,7.63
2018-11-25T15:01:04.567Z,8.63
2018-11-25T15:03:16.767Z,8.00
2018-11-25T15:05:37.495Z,8.10
2018-11-25T15:07:49.766Z,8.97
2018-11-25T15:10:02.021Z,9.83
2018-11-25T15:12:14.270Z,9.13
2018-11-25T15:14:26.516Z,9.77
2018-11-25T15:16:38.799Z,11.13
2018-11-25T15:18:51.145Z,10.77
2018-11-25T15:21:03.395Z,13.80
2018-11-25T15:23:15.978Z,11.10
2018-11-25T15:25:32.130Z,12.37
2018-11-25T15:27:44.391Z,12.40
2018-11-25T15:29:56.676Z,12.17
2018-11-25T15:32:08.915Z,12.63
2018-11-25T15:34:21.151Z,12.63
2018-11-25T15:36:33.479Z,13.07
2018-11-25T15:38:45.719Z,13.93
2018-11-25T15:40:57.919Z,14.43
2018-11-25T15:43:10.804Z,12.77
2018-11-25T15:45:23.049Z,14.07
2018-11-25T15:47:35.288Z,12.33
2018-11-25T15:49:47.540Z,15.80
2018-11-25T15:51:59.747Z,14.83
2018-11-25T15:54:12.043Z,13.60
2018-11-25T15:56:24.313Z,14.37
2018-11-25T15:58:36.616Z,15.87
2018-11-25T16:00:48.891Z,16.33
2018-11-25T16:03:01.093Z,18.40
2018-11-25T16:05:15.948Z,17.87
2018-11-25T16:07:28.157Z,18.00
2018-11-25T16:09:40.491Z,16.53
2018-11-25T16:11:52.754Z,18.57
2018-11-25T16:14:05.034Z,18.13
2018-11-25T16:16:17.261Z,18.07
2018-11-25T16:18:29.527Z,17.70
2018-11-25T16:20:41.827Z,19.97
2018-11-25T16:22:57.502Z,18.57
2018-11-25T16:25:12.853Z,20.00
2018-11-25T16:27:25.963Z,17.33
2018-11-25T16:29:38.244Z,18.60
2018-11-25T16:31:50.486Z,18.77
2018-11-25T16:34:02.708Z,21.47
2018-11-25T16:36:14.937Z,18.43
2018-11-25T16:38:27.221Z,18.13
2018-11-25T16:40:39.456Z,22.90
2018-11-25T16:42:51.655Z,19.00
2018-11-25T16:45:04.700Z,21.00
2018-11-25T16:47:16.941Z,20.27
2018-11-25T16:49:29.128Z,20.17
2018-11-25T16:51:41.355Z,20.43
2018-11-25T16:53:53.602Z,20.60
2018-11-25T16:56:05.924Z,18.17
2018-11-25T16:58:18.201Z,21.23
2018-11-25T17:00:30.538Z,21.10
2018-11-25T17:02:42.834Z,18.67
2018-11-25T17:04:55.061Z,19.87
2018-11-25T17:07:07.324Z,20.87
2018-11-25T17:09:19.557Z,19.50
2018-11-25T17:11:31.808Z,19.97
2018-11-25T17:13:44.057Z,20.33
2018-11-25T17:15:56.299Z,21.20
2018-11-25T17:18:08.573Z,22.87
2018-11-25T17:20:20.804Z,22.77
2018-11-25T17:22:33.005Z,19.50
2018-11-25T17:24:45.296Z,19.00
2018-11-25T17:26:57.567Z,19.87
2018-11-25T17:29:09.836Z,19.80
2018-11-25T17:31:22.088Z,22.20
2018-11-25T17:33:34.403Z,20.80
2018-11-25T17:35:46.611Z,20.87
2018-11-25T17:37:58.818Z,19.23
2018-11-25T17:40:11.196Z,18.07
2018-11-25T17:42:23.383Z,19.37
2018-11-25T17:44:35.641Z,20.53
2018-11-25T17:46:47.947Z,19.63
2018-11-25T17:49:00.208Z,19.47
2018-11-25T17:51:12.440Z,18.13
2018-11-25T17:53:24.694Z,18.07
2018-11-25T17:55:36.925Z,20.87
2018-11-25T17:57:49.505Z,19.30
2018-11-25T18:00:03.344Z,19.73
2018-11-25T18:02:15.743Z,21.50
2018-11-25T18:04:27.972Z,20.30
2018-11-25T18:06:40.223Z,20.27
2018-11-25T18:08:52.452Z,23.47
2018-11-25T18:11:04.755Z,21.27
2018-11-25T18:13:18.160Z,22.63
2018-11-25T18:15:30.445Z,20.93
2018-11-25T18:17:47.120Z,21.40
2018-11-25T18:19:59.351Z,20.40
2018-11-25T18:22:14.189Z,22.77
2018-11-25T18:24:26.414Z,20.37
2018-11-25T18:26:38.702Z,21.67
2018-11-25T18:28:50.943Z,22.97
2018-11-25T18:31:03.208Z,19.23
2018-11-25T18:33:15.511Z,20.83
2018-11-25T18:35:27.866Z,21.40
2018-11-25T18:37:40.114Z,19.67
2018-11-25T18:39:52.297Z,19.60
2018-11-25T18:42:05.071Z,19.17
2018-11-25T18:44:17.306Z,21.00
2018-11-25T18:46:29.542Z,20.70
2018-11-25T18:48:44.223Z,17.87
2018-11-25T18:50:56.607Z,22.30
2018-11-25T18:53:09.668Z,21.27
2018-11-25T18:55:20.832Z,17.30
2018-11-25T18:57:33.096Z,18.00
2018-11-25T18:59:45.388Z,20.27
2018-11-25T19:02:01.001Z,18.07
2018-11-25T19:04:13.304Z,17.93
2018-11-25T19:06:25.540Z,20.93
2018-11-25T19:08:37.840Z,18.87
2018-11-25T19:10:50.107Z,21.60
2018-11-25T19:13:02.376Z,21.17
2018-11-25T19:15:15.902Z,18.40
2018-11-25T19:17:28.135Z,18.40
2018-11-25T19:19:40.391Z,23.47
2018-11-25T19:21:52.653Z,21.00
2018-11-25T19:24:04.938Z,20.63
2018-11-25T19:26:17.161Z,19.90
2018-11-25T19:28:29.360Z,21.70
2018-11-25T19:30:41.655Z,21.70
2018-11-25T19:32:53.916Z,21.90
2018-11-25T19:35:08.133Z,22.23
2018-11-25T19:37:20.328Z,21.43
2018-11-25T19:39:32.620Z,21.07
2018-11-25T19:41:44.836Z,23.07
2018-11-25T19:43:57.075Z,20.70
2018-11-25T19:46:09.378Z,20.47
2018-11-25T19:48:21.622Z,21.37
2018-11-25T19:50:35.221Z,19.33
2018-11-25T19:52:47.516Z,19.13
2018-11-25T19:54:59.763Z,18.17
2018-11-25T19:57:12.088Z,19.70
2018-11-25T19:59:24.362Z,16.17
2018-11-25T20:01:36.625Z,17.80
2018-11-25T20:03:48.922Z,17.27
2018-11-25T20:06:01.185Z,18.97
2018-11-25T20:08:13.446Z,20.40
2018-11-25T20:10:25.876Z,16.10
2018-11-25T20:12:40.069Z,19.53
2018-11-25T20:14:52.205Z,17.43
2018-11-25T20:17:10.408Z,20.40
2018-11-25T20:19:22.617Z,20.93
2018-11-25T20:21:40.668Z,17.00
2018-11-25T20:23:52.934Z,20.10
2018-11-25T20:26:05.318Z,21.43
2018-11-25T20:28:17.619Z,18.40
2018-11-25T20:30:31.090Z,18.17
2018-11-25T20:32:48.854Z,22.23
2018-11-25T20:35:01.122Z,19.33
2018-11-25T20:37:13.394Z,21.73
2018-11-25T20:39:29.912Z,21.77
2018-11-25T20:41:42.144Z,22.43
2018-11-25T20:43:54.404Z,19.03
2018-11-25T20:47:12.386Z,21.47
2018-11-25T20:49:24.692Z,22.87
2018-11-25T20:51:42.535Z,20.07
2018-11-25T20:53:58.048Z,21.40
2018-11-25T20:56:10.391Z,22.33
2018-11-25T20:58:22.664Z,20.57
2018-11-25T21:00:35.167Z,20.07
2018-11-25T21:02:47.395Z,20.57
2018-11-25T21:04:59.676Z,22.53
2018-11-25T21:07:11.899Z,19.93
2018-11-25T21:09:24.142Z,22.40
2018-11-25T21:11:36.415Z,19.87
2018-11-25T21:13:48.661Z,19.97
2018-11-25T21:16:00.911Z,20.90
2018-11-25T21:18:13.143Z,21.97
2018-11-25T21:20:25.706Z,21.67
2018-11-25T21:22:37.953Z,19.83
2018-11-25T21:24:50.237Z,21.00
2018-11-25T21:27:02.439Z,17.80
2018-11-25T21:29:14.677Z,20.93
2018-11-25T21:31:26.940Z,21.20
2018-11-25T21:33:39.168Z,22.17
2018-11-25T21:35:51.403Z,20.33
2018-11-25T21:38:03.639Z,18.03
2018-11-25T21:40:17.844Z,20.83
2018-11-25T21:42:30.047Z,20.57
2018-11-25T21:44:42.275Z,18.40
2018-11-25T21:46:54.504Z,18.50
2018-11-25T21:49:06.746Z,19.07
2018-11-25T21:51:19.002Z,19.13
2018-11-25T21:53:31.226Z,19.07
2018-11-25T21:55:43.419Z,20.03
2018-11-25T21:57:55.650Z,20.53
2018-11-25T22:00:10.667Z,19.90
2018-11-25T22:02:22.948Z,19.93
2018-11-25T22:04:35.164Z,16.80
2018-11-25T22:06:47.395Z,20.20
2018-11-25T22:08:59.608Z,17.93
2018-11-25T22:11:11.789Z,20.87
2018-11-25T22:13:24.002Z,17.57
2018-11-25T22:15:36.192Z,21.30
2018-11-25T22:17:48.525Z,20.47
2018-11-25T22:20:00.759Z,21.03
2018-11-25T22:22:13.047Z,22.83
2018-11-25T22:24:25.264Z,19.93
2018-11-25T22:26:37.520Z,22.60
2018-11-25T22:28:49.728Z,22.43
2018-11-25T22:31:01.911Z,20.93
2018-11-25T22:33:14.134Z,21.80
2018-11-25T22:35:26.361Z,21.57
2018-11-25T22:37:38.513Z,21.53
2018-11-25T22:39:50.731Z,22.60
2018-11-25T22:42:02.931Z,18.93
2018-11-25T22:44:15.151Z,25.53
2018-11-25T22:46:27.352Z,22.47
2018-11-25T22:48:39.596Z,18.97
2018-11-25T22:50:51.868Z,20.93
2018-11-25T22:53:04.172Z,22.77
2018-11-25T22:55:18.515Z,24.80
2018-11-25T22:57:30.723Z,22.43
2018-11-25T22:59:42.958Z,23.87
2018-11-25T23:01:55.176Z,22.57
2018-11-25T23:04:18.896Z,24.20
2018-11-25T23:06:42.525Z,22.77
2018-11-25T23:08:54.734Z,23.47
2018-11-25T23:11:06.891Z,23.23
2018-11-25T23:13:19.076Z,22.70
2018-11-25T23:15:31.353Z,22.50
2018-11-25T23:17:43.532Z,24.17
2018-11-25T23:19:55.723Z,22.97
2018-11-25T23:22:07.913Z,23.93
2018-11-25T23:24:20.100Z,23.27
2018-11-25T23:26:32.374Z,25.40
2018-11-25T23:28:44.569Z,23.83
2018-11-25T23:30:56.747Z,24.00
2018-11-25T23:33:08.931Z,22.83
2018-11-25T23:35:23.227Z,25.43
2018-11-25T23:37:35.389Z,23.10
2018-11-25T23:39:47.651Z,21.70
2018-11-25T23:41:59.844Z,25.53
2018-11-25T23:44:12.096Z,24.07
2018-11-25T23:46:24.293Z,21.57
2018-11-25T23:48:36.481Z,22.27
2018-11-25T23:50:48.799Z,22.50
2018-11-25T23:53:01.050Z,22.03
2018-11-25T23:55:13.762Z,19.73
2018-11-25T23:57:25.975Z,22.93
2018-11-25T23:59:38.196Z,22.90
